sensor_id;sensor_type;location;lat;lon;timestamp;P1;durP1;ratioP1;P2;durP2;ratioP2
67274;SDS011;55463;52.324;5.122;2023-04-24T00:00:04;6.63;;;6.03;;
67274;SDS011;55463;52.324;5.122;2023-04-24T00:02:37;7.57;;;6.72;;
67274;SDS011;55463;52.324;5.122;2023-04-24T00:05:06;8.15;;;7.30;;
67274;SDS011;55463;52.324;5.122;2023-04-24T00:07:33;8.60;;;7.07;;
67274;SDS011;55463;52.324;5.122;2023-04-24T00:09:59;8.10;;;7.05;;
67274;SDS011;55463;52.324;5.122;2023-04-24T00:12:25;7.78;;;6.97;;
67274;SDS011;55463;52.324;5.122;2023-04-24T00:14:51;9.02;;;7.45;;
67274;SDS011;55463;52.324;5.122;2023-04-24T00:17:17;10.73;;;8.27;;
67274;SDS011;55463;52.324;5.122;2023-04-24T00:19:45;8.52;;;7.22;;
67274;SDS011;55463;52.324;5.122;2023-04-24T00:22:10;7.80;;;7.00;;
67274;SDS011;55463;52.324;5.122;2023-04-24T00:24:38;9.25;;;6.85;;
67274;SDS011;55463;52.324;5.122;2023-04-24T00:27:03;7.28;;;6.15;;
67274;SDS011;55463;52.324;5.122;2023-04-24T00:29:29;6.72;;;5.60;;
67274;SDS011;55463;52.324;5.122;2023-04-24T00:31:54;6.82;;;5.68;;
67274;SDS011;55463;52.324;5.122;2023-04-24T00:34:19;10.68;;;6.07;;
67274;SDS011;55463;52.324;5.122;2023-04-24T00:36:45;15.05;;;7.65;;
67274;SDS011;55463;52.324;5.122;2023-04-24T00:39:11;9.00;;;7.75;;
67274;SDS011;55463;52.324;5.122;2023-04-24T00:41:36;12.27;;;7.53;;
67274;SDS011;55463;52.324;5.122;2023-04-24T00:44:02;12.55;;;3.03;;
67274;SDS011;55463;52.324;5.122;2023-04-24T00:46:27;7.28;;;2.35;;
67274;SDS011;55463;52.324;5.122;2023-04-24T00:48:53;4.38;;;1.70;;
67274;SDS011;55463;52.324;5.122;2023-04-24T00:51:19;2.55;;;1.70;;
67274;SDS011;55463;52.324;5.122;2023-04-24T00:53:45;6.82;;;1.50;;
67274;SDS011;55463;52.324;5.122;2023-04-24T00:56:11;3.60;;;1.15;;
67274;SDS011;55463;52.324;5.122;2023-04-24T00:58:36;2.08;;;1.23;;
67274;SDS011;55463;52.324;5.122;2023-04-24T01:01:02;8.35;;;1.20;;
67274;SDS011;55463;52.324;5.122;2023-04-24T01:03:32;6.20;;;1.92;;
67274;SDS011;55463;52.324;5.122;2023-04-24T01:05:58;3.17;;;2.10;;
67274;SDS011;55463;52.324;5.122;2023-04-24T01:08:24;5.38;;;2.53;;
67274;SDS011;55463;52.324;5.122;2023-04-24T01:10:51;8.43;;;3.70;;
67274;SDS011;55463;52.324;5.122;2023-04-24T01:13:17;3.47;;;2.92;;
67274;SDS011;55463;52.324;5.122;2023-04-24T01:15:46;5.30;;;1.80;;
67274;SDS011;55463;52.324;5.122;2023-04-24T01:18:13;2.83;;;1.77;;
67274;SDS011;55463;52.324;5.122;2023-04-24T01:20:39;2.60;;;1.58;;
67274;SDS011;55463;52.324;5.122;2023-04-24T01:23:06;2.85;;;1.30;;
67274;SDS011;55463;52.324;5.122;2023-04-24T01:25:32;3.13;;;1.60;;
67274;SDS011;55463;52.324;5.122;2023-04-24T01:27:57;2.05;;;1.38;;
67274;SDS011;55463;52.324;5.122;2023-04-24T01:30:23;3.63;;;1.42;;
67274;SDS011;55463;52.324;5.122;2023-04-24T01:32:49;1.17;;;1.17;;
67274;SDS011;55463;52.324;5.122;2023-04-24T01:35:15;1.67;;;1.20;;
67274;SDS011;55463;52.324;5.122;2023-04-24T01:37:40;3.95;;;1.30;;
67274;SDS011;55463;52.324;5.122;2023-04-24T01:40:06;5.00;;;1.38;;
67274;SDS011;55463;52.324;5.122;2023-04-24T01:42:32;1.27;;;1.20;;
67274;SDS011;55463;52.324;5.122;2023-04-24T01:44:59;4.60;;;1.50;;
67274;SDS011;55463;52.324;5.122;2023-04-24T01:47:26;1.35;;;1.25;;
67274;SDS011;55463;52.324;5.122;2023-04-24T01:49:52;4.05;;;1.40;;
67274;SDS011;55463;52.324;5.122;2023-04-24T01:52:17;1.60;;;1.50;;
67274;SDS011;55463;52.324;5.122;2023-04-24T01:54:43;3.75;;;1.70;;
67274;SDS011;55463;52.324;5.122;2023-04-24T01:57:11;1.77;;;1.50;;
67274;SDS011;55463;52.324;5.122;2023-04-24T01:59:36;1.98;;;1.60;;
67274;SDS011;55463;52.324;5.122;2023-04-24T02:02:02;2.30;;;1.50;;
67274;SDS011;55463;52.324;5.122;2023-04-24T02:04:28;5.05;;;1.92;;
67274;SDS011;55463;52.324;5.122;2023-04-24T02:06:54;2.55;;;1.30;;
67274;SDS011;55463;52.324;5.122;2023-04-24T02:09:19;4.80;;;1.30;;
67274;SDS011;55463;52.324;5.122;2023-04-24T02:11:45;2.83;;;1.40;;
67274;SDS011;55463;52.324;5.122;2023-04-24T02:14:10;4.43;;;1.45;;
67274;SDS011;55463;52.324;5.122;2023-04-24T02:16:36;2.38;;;1.30;;
67274;SDS011;55463;52.324;5.122;2023-04-24T02:19:02;2.95;;;1.30;;
67274;SDS011;55463;52.324;5.122;2023-04-24T02:21:27;3.90;;;1.30;;
67274;SDS011;55463;52.324;5.122;2023-04-24T02:23:53;3.30;;;1.17;;
67274;SDS011;55463;52.324;5.122;2023-04-24T02:26:19;3.35;;;1.15;;
67274;SDS011;55463;52.324;5.122;2023-04-24T02:28:44;5.10;;;1.00;;
67274;SDS011;55463;52.324;5.122;2023-04-24T02:31:10;1.48;;;1.02;;
67274;SDS011;55463;52.324;5.122;2023-04-24T02:33:35;1.77;;;1.10;;
67274;SDS011;55463;52.324;5.122;2023-04-24T02:36:01;1.95;;;0.90;;
67274;SDS011;55463;52.324;5.122;2023-04-24T02:38:27;0.70;;;0.70;;
67274;SDS011;55463;52.324;5.122;2023-04-24T02:40:53;1.52;;;1.00;;
67274;SDS011;55463;52.324;5.122;2023-04-24T02:43:19;2.60;;;1.27;;
67274;SDS011;55463;52.324;5.122;2023-04-24T02:45:44;0.93;;;0.93;;
67274;SDS011;55463;52.324;5.122;2023-04-24T02:48:09;0.80;;;0.80;;
67274;SDS011;55463;52.324;5.122;2023-04-24T02:50:35;1.30;;;1.00;;
67274;SDS011;55463;52.324;5.122;2023-04-24T02:53:00;1.17;;;1.10;;
67274;SDS011;55463;52.324;5.122;2023-04-24T02:55:26;1.75;;;1.30;;
67274;SDS011;55463;52.324;5.122;2023-04-24T02:57:51;4.00;;;1.50;;
67274;SDS011;55463;52.324;5.122;2023-04-24T03:00:16;1.95;;;1.30;;
67274;SDS011;55463;52.324;5.122;2023-04-24T03:02:42;5.93;;;1.55;;
67274;SDS011;55463;52.324;5.122;2023-04-24T03:05:07;1.50;;;1.30;;
67274;SDS011;55463;52.324;5.122;2023-04-24T03:07:33;2.65;;;1.67;;
67274;SDS011;55463;52.324;5.122;2023-04-24T03:09:59;2.35;;;1.73;;
67274;SDS011;55463;52.324;5.122;2023-04-24T03:12:24;1.83;;;1.60;;
67274;SDS011;55463;52.324;5.122;2023-04-24T03:14:50;2.72;;;1.80;;
67274;SDS011;55463;52.324;5.122;2023-04-24T03:17:15;2.80;;;1.70;;
67274;SDS011;55463;52.324;5.122;2023-04-24T03:19:41;3.15;;;1.40;;
67274;SDS011;55463;52.324;5.122;2023-04-24T03:22:06;1.63;;;1.17;;
67274;SDS011;55463;52.324;5.122;2023-04-24T03:24:34;1.70;;;1.10;;
67274;SDS011;55463;52.324;5.122;2023-04-24T03:26:59;5.10;;;0.95;;
67274;SDS011;55463;52.324;5.122;2023-04-24T03:29:25;1.17;;;0.93;;
67274;SDS011;55463;52.324;5.122;2023-04-24T03:31:50;0.80;;;0.80;;
67274;SDS011;55463;52.324;5.122;2023-04-24T03:34:15;2.85;;;1.30;;
67274;SDS011;55463;52.324;5.122;2023-04-24T03:36:41;0.65;;;0.50;;
67274;SDS011;55463;52.324;5.122;2023-04-24T03:39:06;2.08;;;1.05;;
67274;SDS011;55463;52.324;5.122;2023-04-24T03:41:32;0.98;;;0.98;;
67274;SDS011;55463;52.324;5.122;2023-04-24T03:43:57;1.88;;;1.00;;
67274;SDS011;55463;52.324;5.122;2023-04-24T03:46:23;1.45;;;0.90;;
67274;SDS011;55463;52.324;5.122;2023-04-24T03:48:48;1.40;;;1.15;;
67274;SDS011;55463;52.324;5.122;2023-04-24T03:51:13;2.17;;;1.35;;
67274;SDS011;55463;52.324;5.122;2023-04-24T03:53:39;1.40;;;1.30;;
67274;SDS011;55463;52.324;5.122;2023-04-24T03:56:04;3.83;;;1.20;;
67274;SDS011;55463;52.324;5.122;2023-04-24T03:58:30;1.55;;;1.40;;
67274;SDS011;55463;52.324;5.122;2023-04-24T04:00:55;3.47;;;1.42;;
67274;SDS011;55463;52.324;5.122;2023-04-24T04:03:22;4.07;;;1.38;;
67274;SDS011;55463;52.324;5.122;2023-04-24T04:05:48;2.60;;;1.48;;
67274;SDS011;55463;52.324;5.122;2023-04-24T04:08:14;1.48;;;1.38;;
67274;SDS011;55463;52.324;5.122;2023-04-24T04:10:39;2.85;;;1.27;;
67274;SDS011;55463;52.324;5.122;2023-04-24T04:13:05;1.50;;;1.40;;
67274;SDS011;55463;52.324;5.122;2023-04-24T04:15:31;2.17;;;1.60;;
67274;SDS011;55463;52.324;5.122;2023-04-24T04:17:56;1.50;;;1.40;;
67274;SDS011;55463;52.324;5.122;2023-04-24T04:20:22;3.00;;;1.60;;
67274;SDS011;55463;52.324;5.122;2023-04-24T04:22:47;3.17;;;1.70;;
67274;SDS011;55463;52.324;5.122;2023-04-24T04:25:13;3.53;;;2.22;;
67274;SDS011;55463;52.324;5.122;2023-04-24T04:27:38;3.17;;;1.80;;
67274;SDS011;55463;52.324;5.122;2023-04-24T04:30:06;3.08;;;1.60;;
67274;SDS011;55463;52.324;5.122;2023-04-24T04:32:33;3.35;;;1.77;;
67274;SDS011;55463;52.324;5.122;2023-04-24T04:35:00;2.35;;;1.60;;
67274;SDS011;55463;52.324;5.122;2023-04-24T04:37:32;2.33;;;1.92;;
67274;SDS011;55463;52.324;5.122;2023-04-24T04:39:58;8.82;;;1.60;;
67274;SDS011;55463;52.324;5.122;2023-04-24T04:42:24;4.43;;;1.55;;
67274;SDS011;55463;52.324;5.122;2023-04-24T04:44:50;1.42;;;1.33;;
67274;SDS011;55463;52.324;5.122;2023-04-24T04:47:16;1.63;;;1.42;;
67274;SDS011;55463;52.324;5.122;2023-04-24T04:49:42;1.48;;;1.30;;
67274;SDS011;55463;52.324;5.122;2023-04-24T04:52:08;2.40;;;1.42;;
67274;SDS011;55463;52.324;5.122;2023-04-24T04:54:34;1.17;;;1.05;;
67274;SDS011;55463;52.324;5.122;2023-04-24T04:56:59;1.10;;;1.00;;
67274;SDS011;55463;52.324;5.122;2023-04-24T04:59:25;1.20;;;1.20;;
67274;SDS011;55463;52.324;5.122;2023-04-24T05:01:53;2.33;;;1.10;;
67274;SDS011;55463;52.324;5.122;2023-04-24T05:04:19;3.70;;;1.30;;
67274;SDS011;55463;52.324;5.122;2023-04-24T05:06:44;2.92;;;1.30;;
67274;SDS011;55463;52.324;5.122;2023-04-24T05:09:12;3.33;;;1.38;;
67274;SDS011;55463;52.324;5.122;2023-04-24T05:11:37;1.45;;;1.33;;
67274;SDS011;55463;52.324;5.122;2023-04-24T05:14:02;2.20;;;1.45;;
67274;SDS011;55463;52.324;5.122;2023-04-24T05:16:28;1.98;;;1.40;;
67274;SDS011;55463;52.324;5.122;2023-04-24T05:18:53;1.33;;;1.30;;
67274;SDS011;55463;52.324;5.122;2023-04-24T05:21:18;3.28;;;1.40;;
67274;SDS011;55463;52.324;5.122;2023-04-24T05:23:44;2.63;;;1.40;;
67274;SDS011;55463;52.324;5.122;2023-04-24T05:26:09;2.83;;;1.02;;
67274;SDS011;55463;52.324;5.122;2023-04-24T05:28:35;3.17;;;1.13;;
67274;SDS011;55463;52.324;5.122;2023-04-24T05:31:01;2.72;;;1.10;;
67274;SDS011;55463;52.324;5.122;2023-04-24T05:33:27;2.90;;;1.10;;
67274;SDS011;55463;52.324;5.122;2023-04-24T05:35:52;2.15;;;1.20;;
67274;SDS011;55463;52.324;5.122;2023-04-24T05:38:18;2.60;;;1.30;;
67274;SDS011;55463;52.324;5.122;2023-04-24T05:40:44;4.40;;;1.40;;
67274;SDS011;55463;52.324;5.122;2023-04-24T05:43:10;1.48;;;1.30;;
67274;SDS011;55463;52.324;5.122;2023-04-24T05:45:36;2.15;;;1.67;;
67274;SDS011;55463;52.324;5.122;2023-04-24T05:48:01;4.63;;;2.80;;
67274;SDS011;55463;52.324;5.122;2023-04-24T05:50:27;12.93;;;6.00;;
67274;SDS011;55463;52.324;5.122;2023-04-24T05:52:53;18.75;;;8.27;;
67274;SDS011;55463;52.324;5.122;2023-04-24T05:55:18;17.45;;;8.40;;
67274;SDS011;55463;52.324;5.122;2023-04-24T05:57:44;23.70;;;10.20;;
67274;SDS011;55463;52.324;5.122;2023-04-24T06:00:09;24.65;;;11.13;;
67274;SDS011;55463;52.324;5.122;2023-04-24T06:02:37;25.85;;;12.55;;
67274;SDS011;55463;52.324;5.122;2023-04-24T06:05:03;24.35;;;12.85;;
67274;SDS011;55463;52.324;5.122;2023-04-24T06:07:29;26.60;;;12.98;;
67274;SDS011;55463;52.324;5.122;2023-04-24T06:09:55;28.00;;;13.20;;
67274;SDS011;55463;52.324;5.122;2023-04-24T06:12:21;26.50;;;13.90;;
67274;SDS011;55463;52.324;5.122;2023-04-24T06:14:47;25.38;;;13.00;;
67274;SDS011;55463;52.324;5.122;2023-04-24T06:17:12;25.55;;;13.40;;
67274;SDS011;55463;52.324;5.122;2023-04-24T06:19:38;21.17;;;11.75;;
67274;SDS011;55463;52.324;5.122;2023-04-24T06:22:03;24.95;;;12.70;;
67274;SDS011;55463;52.324;5.122;2023-04-24T06:24:29;21.98;;;11.77;;
67274;SDS011;55463;52.324;5.122;2023-04-24T06:26:54;25.40;;;12.23;;
67274;SDS011;55463;52.324;5.122;2023-04-24T06:29:21;24.60;;;12.52;;
67274;SDS011;55463;52.324;5.122;2023-04-24T06:31:47;31.08;;;13.30;;
67274;SDS011;55463;52.324;5.122;2023-04-24T06:34:12;30.60;;;10.30;;
67274;SDS011;55463;52.324;5.122;2023-04-24T06:36:37;23.50;;;9.63;;
67274;SDS011;55463;52.324;5.122;2023-04-24T06:39:03;18.67;;;8.95;;
67274;SDS011;55463;52.324;5.122;2023-04-24T06:41:29;19.17;;;8.77;;
67274;SDS011;55463;52.324;5.122;2023-04-24T06:43:54;21.27;;;7.68;;
67274;SDS011;55463;52.324;5.122;2023-04-24T06:46:20;22.45;;;7.93;;
67274;SDS011;55463;52.324;5.122;2023-04-24T06:48:48;27.33;;;8.18;;
67274;SDS011;55463;52.324;5.122;2023-04-24T06:51:14;22.85;;;8.43;;
67274;SDS011;55463;52.324;5.122;2023-04-24T06:53:40;18.30;;;7.55;;
67274;SDS011;55463;52.324;5.122;2023-04-24T06:56:05;18.63;;;7.95;;
67274;SDS011;55463;52.324;5.122;2023-04-24T06:58:31;21.63;;;9.10;;
67274;SDS011;55463;52.324;5.122;2023-04-24T07:00:56;18.58;;;7.82;;
67274;SDS011;55463;52.324;5.122;2023-04-24T07:03:21;24.92;;;8.45;;
67274;SDS011;55463;52.324;5.122;2023-04-24T07:05:48;20.23;;;7.68;;
67274;SDS011;55463;52.324;5.122;2023-04-24T07:08:14;15.50;;;7.85;;
67274;SDS011;55463;52.324;5.122;2023-04-24T07:10:42;20.48;;;7.78;;
67274;SDS011;55463;52.324;5.122;2023-04-24T07:13:07;16.48;;;7.53;;
67274;SDS011;55463;52.324;5.122;2023-04-24T07:15:33;19.23;;;8.48;;
67274;SDS011;55463;52.324;5.122;2023-04-24T07:17:59;19.35;;;7.57;;
67274;SDS011;55463;52.324;5.122;2023-04-24T07:20:24;23.40;;;7.50;;
67274;SDS011;55463;52.324;5.122;2023-04-24T07:22:50;27.05;;;7.57;;
67274;SDS011;55463;52.324;5.122;2023-04-24T07:25:16;17.40;;;7.18;;
67274;SDS011;55463;52.324;5.122;2023-04-24T07:27:42;21.10;;;7.45;;
67274;SDS011;55463;52.324;5.122;2023-04-24T07:30:08;20.50;;;8.27;;
67274;SDS011;55463;52.324;5.122;2023-04-24T07:32:33;28.25;;;7.80;;
67274;SDS011;55463;52.324;5.122;2023-04-24T07:35:00;16.83;;;6.30;;
67274;SDS011;55463;52.324;5.122;2023-04-24T07:37:25;16.90;;;6.63;;
67274;SDS011;55463;52.324;5.122;2023-04-24T07:39:50;21.55;;;6.95;;
67274;SDS011;55463;52.324;5.122;2023-04-24T07:42:16;22.10;;;7.55;;
67274;SDS011;55463;52.324;5.122;2023-04-24T07:44:41;26.75;;;7.13;;
67274;SDS011;55463;52.324;5.122;2023-04-24T07:47:07;19.20;;;5.55;;
67274;SDS011;55463;52.324;5.122;2023-04-24T07:49:33;23.42;;;5.38;;
67274;SDS011;55463;52.324;5.122;2023-04-24T07:51:59;20.52;;;5.68;;
67274;SDS011;55463;52.324;5.122;2023-04-24T07:54:26;21.05;;;4.78;;
67274;SDS011;55463;52.324;5.122;2023-04-24T07:56:52;20.58;;;4.30;;
67274;SDS011;55463;52.324;5.122;2023-04-24T07:59:17;26.88;;;4.22;;
67274;SDS011;55463;52.324;5.122;2023-04-24T08:01:43;23.58;;;4.78;;
67274;SDS011;55463;52.324;5.122;2023-04-24T08:04:08;27.98;;;4.93;;
67274;SDS011;55463;52.324;5.122;2023-04-24T08:06:33;22.08;;;4.80;;
67274;SDS011;55463;52.324;5.122;2023-04-24T08:08:59;18.48;;;4.53;;
67274;SDS011;55463;52.324;5.122;2023-04-24T08:11:25;15.77;;;3.50;;
67274;SDS011;55463;52.324;5.122;2023-04-24T08:13:51;12.25;;;3.17;;
67274;SDS011;55463;52.324;5.122;2023-04-24T08:16:16;9.27;;;2.83;;
67274;SDS011;55463;52.324;5.122;2023-04-24T08:18:42;21.27;;;5.13;;
67274;SDS011;55463;52.324;5.122;2023-04-24T08:21:07;19.25;;;3.40;;
67274;SDS011;55463;52.324;5.122;2023-04-24T08:23:33;16.65;;;3.30;;
67274;SDS011;55463;52.324;5.122;2023-04-24T08:25:58;14.98;;;3.33;;
67274;SDS011;55463;52.324;5.122;2023-04-24T08:28:23;17.50;;;3.20;;
67274;SDS011;55463;52.324;5.122;2023-04-24T08:30:49;15.55;;;3.30;;
67274;SDS011;55463;52.324;5.122;2023-04-24T08:33:19;14.70;;;3.10;;
67274;SDS011;55463;52.324;5.122;2023-04-24T08:35:48;12.95;;;3.20;;
67274;SDS011;55463;52.324;5.122;2023-04-24T08:38:13;20.92;;;3.60;;
67274;SDS011;55463;52.324;5.122;2023-04-24T08:40:38;18.05;;;3.38;;
67274;SDS011;55463;52.324;5.122;2023-04-24T08:43:04;12.95;;;3.05;;
67274;SDS011;55463;52.324;5.122;2023-04-24T08:45:30;17.85;;;3.45;;
67274;SDS011;55463;52.324;5.122;2023-04-24T08:47:55;13.02;;;3.80;;
67274;SDS011;55463;52.324;5.122;2023-04-24T08:50:23;16.58;;;2.70;;
67274;SDS011;55463;52.324;5.122;2023-04-24T08:52:49;13.15;;;3.05;;
67274;SDS011;55463;52.324;5.122;2023-04-24T08:55:16;12.77;;;2.70;;
67274;SDS011;55463;52.324;5.122;2023-04-24T08:57:44;15.45;;;3.45;;
67274;SDS011;55463;52.324;5.122;2023-04-24T09:00:11;13.98;;;2.95;;
67274;SDS011;55463;52.324;5.122;2023-04-24T09:02:39;12.85;;;3.65;;
67274;SDS011;55463;52.324;5.122;2023-04-24T09:05:07;12.37;;;3.23;;
67274;SDS011;55463;52.324;5.122;2023-04-24T09:07:33;20.60;;;3.53;;
67274;SDS011;55463;52.324;5.122;2023-04-24T09:10:01;13.30;;;2.95;;
67274;SDS011;55463;52.324;5.122;2023-04-24T09:12:27;11.63;;;2.58;;
67274;SDS011;55463;52.324;5.122;2023-04-24T09:14:52;7.50;;;2.55;;
67274;SDS011;55463;52.324;5.122;2023-04-24T09:17:20;8.07;;;2.38;;
67274;SDS011;55463;52.324;5.122;2023-04-24T09:19:47;8.75;;;2.60;;
67274;SDS011;55463;52.324;5.122;2023-04-24T09:22:13;15.00;;;2.80;;
67274;SDS011;55463;52.324;5.122;2023-04-24T09:24:39;15.32;;;2.75;;
67274;SDS011;55463;52.324;5.122;2023-04-24T09:27:05;14.68;;;2.95;;
67274;SDS011;55463;52.324;5.122;2023-04-24T09:29:31;18.25;;;3.20;;
67274;SDS011;55463;52.324;5.122;2023-04-24T09:31:57;13.57;;;2.92;;
67274;SDS011;55463;52.324;5.122;2023-04-24T09:34:24;14.90;;;3.28;;
67274;SDS011;55463;52.324;5.122;2023-04-24T09:36:51;12.55;;;3.00;;
67274;SDS011;55463;52.324;5.122;2023-04-24T09:39:16;12.40;;;3.20;;
67274;SDS011;55463;52.324;5.122;2023-04-24T09:44:26;12.77;;;2.97;;
67274;SDS011;55463;52.324;5.122;2023-04-24T09:46:54;15.88;;;4.00;;
67274;SDS011;55463;52.324;5.122;2023-04-24T09:49:27;13.88;;;2.85;;
67274;SDS011;55463;52.324;5.122;2023-04-24T09:52:03;7.30;;;2.97;;
67274;SDS011;55463;52.324;5.122;2023-04-24T09:54:29;15.25;;;3.10;;
67274;SDS011;55463;52.324;5.122;2023-04-24T09:56:54;14.40;;;3.05;;
67274;SDS011;55463;52.324;5.122;2023-04-24T09:59:21;8.48;;;2.40;;
67274;SDS011;55463;52.324;5.122;2023-04-24T10:01:47;9.93;;;1.98;;
67274;SDS011;55463;52.324;5.122;2023-04-24T10:04:26;13.63;;;2.33;;
67274;SDS011;55463;52.324;5.122;2023-04-24T10:06:56;12.80;;;2.33;;
67274;SDS011;55463;52.324;5.122;2023-04-24T10:09:22;9.73;;;2.40;;
67274;SDS011;55463;52.324;5.122;2023-04-24T10:11:50;9.82;;;2.05;;
67274;SDS011;55463;52.324;5.122;2023-04-24T10:14:17;7.32;;;2.15;;
67274;SDS011;55463;52.324;5.122;2023-04-24T10:16:48;7.10;;;2.13;;
67274;SDS011;55463;52.324;5.122;2023-04-24T10:19:15;6.80;;;2.10;;
67274;SDS011;55463;52.324;5.122;2023-04-24T10:21:43;7.40;;;1.83;;
67274;SDS011;55463;52.324;5.122;2023-04-24T10:24:16;7.72;;;2.70;;
67274;SDS011;55463;52.324;5.122;2023-04-24T10:26:43;7.07;;;2.47;;
67274;SDS011;55463;52.324;5.122;2023-04-24T10:29:12;5.07;;;1.77;;
67274;SDS011;55463;52.324;5.122;2023-04-24T10:31:40;2.60;;;1.23;;
67274;SDS011;55463;52.324;5.122;2023-04-24T10:34:06;5.18;;;1.40;;
67274;SDS011;55463;52.324;5.122;2023-04-24T10:36:33;3.90;;;1.40;;
67274;SDS011;55463;52.324;5.122;2023-04-24T10:39:01;1.85;;;1.40;;
67274;SDS011;55463;52.324;5.122;2023-04-24T10:41:29;5.40;;;1.33;;
67274;SDS011;55463;52.324;5.122;2023-04-24T10:44:08;4.53;;;1.52;;
67274;SDS011;55463;52.324;5.122;2023-04-24T10:46:35;4.47;;;1.30;;
67274;SDS011;55463;52.324;5.122;2023-04-24T10:49:04;6.97;;;1.50;;
67274;SDS011;55463;52.324;5.122;2023-04-24T10:51:44;3.20;;;1.52;;
67274;SDS011;55463;52.324;5.122;2023-04-24T10:56:52;8.98;;;1.63;;
67274;SDS011;55463;52.324;5.122;2023-04-24T10:59:25;3.78;;;1.25;;
67274;SDS011;55463;52.324;5.122;2023-04-24T11:01:59;4.93;;;1.55;;
67274;SDS011;55463;52.324;5.122;2023-04-24T11:04:32;11.35;;;2.03;;
67274;SDS011;55463;52.324;5.122;2023-04-24T11:06:58;2.15;;;1.10;;
67274;SDS011;55463;52.324;5.122;2023-04-24T11:09:26;4.90;;;1.67;;
67274;SDS011;55463;52.324;5.122;2023-04-24T11:12:02;3.97;;;1.10;;
67274;SDS011;55463;52.324;5.122;2023-04-24T11:17:31;5.65;;;1.10;;
67274;SDS011;55463;52.324;5.122;2023-04-24T11:20:15;6.43;;;1.27;;
67274;SDS011;55463;52.324;5.122;2023-04-24T11:22:42;3.70;;;1.33;;
67274;SDS011;55463;52.324;5.122;2023-04-24T11:25:08;5.10;;;1.58;;
67274;SDS011;55463;52.324;5.122;2023-04-24T11:27:40;4.35;;;1.30;;
67274;SDS011;55463;52.324;5.122;2023-04-24T11:30:08;7.10;;;1.50;;
67274;SDS011;55463;52.324;5.122;2023-04-24T11:32:42;4.53;;;1.67;;
67274;SDS011;55463;52.324;5.122;2023-04-24T11:35:20;4.10;;;1.45;;
67274;SDS011;55463;52.324;5.122;2023-04-24T11:37:50;5.35;;;1.35;;
67274;SDS011;55463;52.324;5.122;2023-04-24T11:40:18;10.35;;;2.08;;
67274;SDS011;55463;52.324;5.122;2023-04-24T11:42:46;7.25;;;1.50;;
67274;SDS011;55463;52.324;5.122;2023-04-24T11:45:16;5.20;;;1.45;;
67274;SDS011;55463;52.324;5.122;2023-04-24T11:47:43;5.78;;;1.60;;
67274;SDS011;55463;52.324;5.122;2023-04-24T11:50:16;4.85;;;1.70;;
67274;SDS011;55463;52.324;5.122;2023-04-24T11:52:43;2.55;;;1.20;;
67274;SDS011;55463;52.324;5.122;2023-04-24T11:57:45;5.45;;;2.05;;
67274;SDS011;55463;52.324;5.122;2023-04-24T12:00:16;4.90;;;1.45;;
67274;SDS011;55463;52.324;5.122;2023-04-24T12:02:45;12.82;;;1.85;;
67274;SDS011;55463;52.324;5.122;2023-04-24T12:05:21;5.38;;;1.77;;
67274;SDS011;55463;52.324;5.122;2023-04-24T12:07:48;8.02;;;2.10;;
67274;SDS011;55463;52.324;5.122;2023-04-24T12:10:13;4.70;;;1.75;;
67274;SDS011;55463;52.324;5.122;2023-04-24T12:12:39;8.73;;;2.35;;
67274;SDS011;55463;52.324;5.122;2023-04-24T12:15:08;16.65;;;2.60;;
67274;SDS011;55463;52.324;5.122;2023-04-24T12:17:34;5.57;;;2.10;;
67274;SDS011;55463;52.324;5.122;2023-04-24T12:20:05;7.90;;;2.08;;
67274;SDS011;55463;52.324;5.122;2023-04-24T12:25:13;11.10;;;2.78;;
67274;SDS011;55463;52.324;5.122;2023-04-24T12:27:43;9.13;;;2.40;;
67274;SDS011;55463;52.324;5.122;2023-04-24T12:30:11;13.75;;;2.70;;
67274;SDS011;55463;52.324;5.122;2023-04-24T12:32:48;10.02;;;2.50;;
67274;SDS011;55463;52.324;5.122;2023-04-24T12:35:18;10.85;;;2.15;;
67274;SDS011;55463;52.324;5.122;2023-04-24T12:37:45;9.10;;;2.10;;
67274;SDS011;55463;52.324;5.122;2023-04-24T12:40:11;7.60;;;2.40;;
67274;SDS011;55463;52.324;5.122;2023-04-24T12:42:44;10.70;;;2.85;;
67274;SDS011;55463;52.324;5.122;2023-04-24T12:45:14;13.00;;;2.97;;
67274;SDS011;55463;52.324;5.122;2023-04-24T12:47:41;13.57;;;2.95;;
67274;SDS011;55463;52.324;5.122;2023-04-24T12:50:08;11.57;;;2.80;;
67274;SDS011;55463;52.324;5.122;2023-04-24T12:52:35;13.05;;;3.05;;
67274;SDS011;55463;52.324;5.122;2023-04-24T12:55:01;15.90;;;3.13;;
67274;SDS011;55463;52.324;5.122;2023-04-24T12:57:27;11.68;;;2.88;;
67274;SDS011;55463;52.324;5.122;2023-04-24T12:59:54;13.27;;;3.28;;
67274;SDS011;55463;52.324;5.122;2023-04-24T13:02:24;9.07;;;2.55;;
67274;SDS011;55463;52.324;5.122;2023-04-24T13:04:51;15.55;;;2.90;;
67274;SDS011;55463;52.324;5.122;2023-04-24T13:07:16;15.25;;;3.33;;
67274;SDS011;55463;52.324;5.122;2023-04-24T13:09:42;17.55;;;3.47;;
67274;SDS011;55463;52.324;5.122;2023-04-24T13:12:09;14.13;;;3.42;;
67274;SDS011;55463;52.324;5.122;2023-04-24T13:14:35;19.00;;;3.70;;
67274;SDS011;55463;52.324;5.122;2023-04-24T13:17:01;20.25;;;3.63;;
67274;SDS011;55463;52.324;5.122;2023-04-24T13:19:26;17.33;;;2.55;;
67274;SDS011;55463;52.324;5.122;2023-04-24T13:21:53;10.35;;;2.60;;
67274;SDS011;55463;52.324;5.122;2023-04-24T13:24:20;16.38;;;3.45;;
67274;SDS011;55463;52.324;5.122;2023-04-24T13:26:46;11.82;;;3.10;;
67274;SDS011;55463;52.324;5.122;2023-04-24T13:29:11;20.25;;;3.13;;
67274;SDS011;55463;52.324;5.122;2023-04-24T13:31:36;13.40;;;3.35;;
67274;SDS011;55463;52.324;5.122;2023-04-24T13:34:03;16.98;;;3.22;;
67274;SDS011;55463;52.324;5.122;2023-04-24T13:36:28;9.68;;;2.80;;
67274;SDS011;55463;52.324;5.122;2023-04-24T13:38:55;17.35;;;3.47;;
67274;SDS011;55463;52.324;5.122;2023-04-24T13:41:20;15.43;;;3.67;;
67274;SDS011;55463;52.324;5.122;2023-04-24T13:43:45;10.85;;;2.67;;
67274;SDS011;55463;52.324;5.122;2023-04-24T13:46:11;11.43;;;2.60;;
67274;SDS011;55463;52.324;5.122;2023-04-24T13:48:36;11.23;;;2.90;;
67274;SDS011;55463;52.324;5.122;2023-04-24T13:51:01;8.00;;;2.80;;
67274;SDS011;55463;52.324;5.122;2023-04-24T13:53:27;16.77;;;3.40;;
67274;SDS011;55463;52.324;5.122;2023-04-24T13:55:52;13.95;;;3.20;;
67274;SDS011;55463;52.324;5.122;2023-04-24T13:58:18;17.30;;;2.97;;
67274;SDS011;55463;52.324;5.122;2023-04-24T14:00:43;13.07;;;3.15;;
67274;SDS011;55463;52.324;5.122;2023-04-24T14:03:09;18.38;;;3.40;;
67274;SDS011;55463;52.324;5.122;2023-04-24T14:05:34;15.20;;;3.13;;
67274;SDS011;55463;52.324;5.122;2023-04-24T14:07:59;11.15;;;3.05;;
67274;SDS011;55463;52.324;5.122;2023-04-24T14:10:25;13.95;;;3.03;;
67274;SDS011;55463;52.324;5.122;2023-04-24T14:12:52;11.60;;;2.75;;
67274;SDS011;55463;52.324;5.122;2023-04-24T14:15:18;12.05;;;2.78;;
67274;SDS011;55463;52.324;5.122;2023-04-24T14:17:43;12.98;;;2.80;;
67274;SDS011;55463;52.324;5.122;2023-04-24T14:20:09;9.00;;;2.22;;
67274;SDS011;55463;52.324;5.122;2023-04-24T14:22:35;8.70;;;2.20;;
67274;SDS011;55463;52.324;5.122;2023-04-24T14:25:00;4.93;;;2.25;;
67274;SDS011;55463;52.324;5.122;2023-04-24T14:27:25;8.90;;;2.03;;
67274;SDS011;55463;52.324;5.122;2023-04-24T14:29:51;11.15;;;2.95;;
67274;SDS011;55463;52.324;5.122;2023-04-24T14:32:17;9.85;;;2.30;;
67274;SDS011;55463;52.324;5.122;2023-04-24T14:34:42;10.15;;;2.42;;
67274;SDS011;55463;52.324;5.122;2023-04-24T14:37:08;8.23;;;2.88;;
67274;SDS011;55463;52.324;5.122;2023-04-24T14:39:33;12.25;;;2.50;;
67274;SDS011;55463;52.324;5.122;2023-04-24T14:41:59;14.73;;;3.20;;
67274;SDS011;55463;52.324;5.122;2023-04-24T14:44:25;13.85;;;3.10;;
67274;SDS011;55463;52.324;5.122;2023-04-24T14:46:51;12.82;;;3.20;;
67274;SDS011;55463;52.324;5.122;2023-04-24T14:49:16;14.40;;;3.95;;